sensor_id;sensor_type;location;lat;lon;timestamp;P1;durP1;ratioP1;P2;durP2;ratioP2
14776;SDS011;7480;43.124;25.686;2024-02-26T00:01:50;8.10;;;3.30;;
14776;SDS011;7480;43.124;25.686;2024-02-26T00:04:16;6.20;;;2.87;;
14776;SDS011;7480;43.124;25.686;2024-02-26T00:06:43;13.43;;;4.03;;
14776;SDS011;7480;43.124;25.686;2024-02-26T00:09:10;6.47;;;3.07;;
14776;SDS011;7480;43.124;25.686;2024-02-26T00:11:37;5.77;;;2.40;;
14776;SDS011;7480;43.124;25.686;2024-02-26T00:14:03;9.53;;;3.40;;
14776;SDS011;7480;43.124;25.686;2024-02-26T00:16:30;6.73;;;2.77;;
14776;SDS011;7480;43.124;25.686;2024-02-26T00:18:57;8.13;;;3.80;;
14776;SDS011;7480;43.124;25.686;2024-02-26T00:21:23;5.07;;;2.90;;
14776;SDS011;7480;43.124;25.686;2024-02-26T00:23:51;7.53;;;3.03;;
14776;SDS011;7480;43.124;25.686;2024-02-26T00:26:18;8.70;;;3.33;;
14776;SDS011;7480;43.124;25.686;2024-02-26T00:28:44;7.07;;;3.03;;
14776;SDS011;7480;43.124;25.686;2024-02-26T00:31:11;7.43;;;3.43;;
14776;SDS011;7480;43.124;25.686;2024-02-26T00:33:38;7.00;;;3.13;;
14776;SDS011;7480;43.124;25.686;2024-02-26T00:36:05;9.10;;;3.30;;
14776;SDS011;7480;43.124;25.686;2024-02-26T00:38:32;6.90;;;2.90;;
14776;SDS011;7480;43.124;25.686;2024-02-26T00:40:58;5.70;;;2.73;;
14776;SDS011;7480;43.124;25.686;2024-02-26T00:43:25;5.27;;;2.53;;
14776;SDS011;7480;43.124;25.686;2024-02-26T00:45:51;5.70;;;2.87;;
14776;SDS011;7480;43.124;25.686;2024-02-26T00:48:19;3.50;;;2.20;;
14776;SDS011;7480;43.124;25.686;2024-02-26T00:50:45;7.80;;;2.90;;
14776;SDS011;7480;43.124;25.686;2024-02-26T00:53:12;6.47;;;2.83;;
14776;SDS011;7480;43.124;25.686;2024-02-26T00:55:39;5.43;;;2.90;;
14776;SDS011;7480;43.124;25.686;2024-02-26T00:58:05;7.53;;;3.00;;
14776;SDS011;7480;43.124;25.686;2024-02-26T01:00:32;8.50;;;3.13;;
14776;SDS011;7480;43.124;25.686;2024-02-26T01:02:58;6.63;;;3.07;;
14776;SDS011;7480;43.124;25.686;2024-02-26T01:05:26;6.97;;;3.17;;
14776;SDS011;7480;43.124;25.686;2024-02-26T01:07:53;7.07;;;3.50;;
14776;SDS011;7480;43.124;25.686;2024-02-26T01:10:20;8.00;;;3.20;;
14776;SDS011;7480;43.124;25.686;2024-02-26T01:12:46;7.23;;;3.50;;
14776;SDS011;7480;43.124;25.686;2024-02-26T01:15:14;8.73;;;3.57;;
14776;SDS011;7480;43.124;25.686;2024-02-26T01:17:41;7.10;;;3.40;;
14776;SDS011;7480;43.124;25.686;2024-02-26T01:20:08;5.97;;;2.87;;
14776;SDS011;7480;43.124;25.686;2024-02-26T01:22:35;6.23;;;2.73;;
14776;SDS011;7480;43.124;25.686;2024-02-26T01:25:02;6.27;;;2.97;;
14776;SDS011;7480;43.124;25.686;2024-02-26T01:27:29;6.97;;;3.50;;
14776;SDS011;7480;43.124;25.686;2024-02-26T01:29:55;4.70;;;2.70;;
14776;SDS011;7480;43.124;25.686;2024-02-26T01:32:22;6.23;;;3.03;;
14776;SDS011;7480;43.124;25.686;2024-02-26T01:34:49;5.00;;;2.70;;
14776;SDS011;7480;43.124;25.686;2024-02-26T01:37:15;8.47;;;3.67;;
14776;SDS011;7480;43.124;25.686;2024-02-26T01:39:42;11.27;;;3.63;;
14776;SDS011;7480;43.124;25.686;2024-02-26T01:42:08;10.43;;;3.83;;
14776;SDS011;7480;43.124;25.686;2024-02-26T01:44:35;9.07;;;3.37;;
14776;SDS011;7480;43.124;25.686;2024-02-26T01:47:02;7.03;;;3.27;;
14776;SDS011;7480;43.124;25.686;2024-02-26T01:49:29;5.20;;;3.17;;
14776;SDS011;7480;43.124;25.686;2024-02-26T01:51:56;3.83;;;2.53;;
14776;SDS011;7480;43.124;25.686;2024-02-26T01:54:24;5.03;;;3.10;;
14776;SDS011;7480;43.124;25.686;2024-02-26T01:56:51;6.90;;;3.00;;
14776;SDS011;7480;43.124;25.686;2024-02-26T01:59:18;9.43;;;3.70;;
14776;SDS011;7480;43.124;25.686;2024-02-26T02:01:44;5.80;;;3.20;;
14776;SDS011;7480;43.124;25.686;2024-02-26T02:04:14;10.00;;;3.40;;
14776;SDS011;7480;43.124;25.686;2024-02-26T02:06:41;9.20;;;3.67;;
14776;SDS011;7480;43.124;25.686;2024-02-26T02:09:08;8.03;;;3.43;;
14776;SDS011;7480;43.124;25.686;2024-02-26T02:11:34;8.83;;;3.30;;
14776;SDS011;7480;43.124;25.686;2024-02-26T02:14:01;8.87;;;3.67;;
14776;SDS011;7480;43.124;25.686;2024-02-26T02:16:27;12.57;;;4.53;;
14776;SDS011;7480;43.124;25.686;2024-02-26T02:18:54;7.87;;;3.40;;
14776;SDS011;7480;43.124;25.686;2024-02-26T02:21:21;6.40;;;2.97;;
14776;SDS011;7480;43.124;25.686;2024-02-26T02:23:47;8.70;;;3.57;;
14776;SDS011;7480;43.124;25.686;2024-02-26T02:26:15;8.17;;;3.80;;
14776;SDS011;7480;43.124;25.686;2024-02-26T02:28:42;9.83;;;4.07;;
14776;SDS011;7480;43.124;25.686;2024-02-26T02:31:09;11.50;;;3.60;;
14776;SDS011;7480;43.124;25.686;2024-02-26T02:33:36;7.83;;;3.53;;
14776;SDS011;7480;43.124;25.686;2024-02-26T02:36:03;8.07;;;3.30;;
14776;SDS011;7480;43.124;25.686;2024-02-26T02:38:30;5.17;;;2.80;;
14776;SDS011;7480;43.124;25.686;2024-02-26T02:40:58;4.40;;;2.90;;
14776;SDS011;7480;43.124;25.686;2024-02-26T02:43:24;9.03;;;3.10;;
14776;SDS011;7480;43.124;25.686;2024-02-26T02:45:52;5.73;;;3.13;;
14776;SDS011;7480;43.124;25.686;2024-02-26T02:48:19;8.37;;;3.40;;
14776;SDS011;7480;43.124;25.686;2024-02-26T02:50:45;10.23;;;3.73;;
14776;SDS011;7480;43.124;25.686;2024-02-26T02:53:12;6.37;;;2.93;;
14776;SDS011;7480;43.124;25.686;2024-02-26T02:55:39;9.60;;;3.10;;
14776;SDS011;7480;43.124;25.686;2024-02-26T02:58:05;11.10;;;3.70;;
14776;SDS011;7480;43.124;25.686;2024-02-26T03:00:37;7.38;;;3.25;;
14776;SDS011;7480;43.124;25.686;2024-02-26T03:03:04;9.07;;;3.53;;
14776;SDS011;7480;43.124;25.686;2024-02-26T03:05:30;8.20;;;3.30;;
14776;SDS011;7480;43.124;25.686;2024-02-26T03:07:57;7.60;;;3.20;;
14776;SDS011;7480;43.124;25.686;2024-02-26T03:10:24;6.93;;;3.13;;
14776;SDS011;7480;43.124;25.686;2024-02-26T03:12:50;7.77;;;3.13;;
14776;SDS011;7480;43.124;25.686;2024-02-26T03:15:17;8.00;;;3.53;;
14776;SDS011;7480;43.124;25.686;2024-02-26T03:17:43;11.80;;;4.27;;
14776;SDS011;7480;43.124;25.686;2024-02-26T03:20:10;5.57;;;2.70;;
14776;SDS011;7480;43.124;25.686;2024-02-26T03:22:38;5.33;;;2.87;;
14776;SDS011;7480;43.124;25.686;2024-02-26T03:25:05;3.60;;;2.37;;
14776;SDS011;7480;43.124;25.686;2024-02-26T03:27:32;6.70;;;3.10;;
14776;SDS011;7480;43.124;25.686;2024-02-26T03:29:58;11.43;;;3.47;;
14776;SDS011;7480;43.124;25.686;2024-02-26T03:32:25;8.13;;;3.20;;
14776;SDS011;7480;43.124;25.686;2024-02-26T03:34:52;9.47;;;3.40;;
14776;SDS011;7480;43.124;25.686;2024-02-26T03:37:21;9.03;;;3.70;;
14776;SDS011;7480;43.124;25.686;2024-02-26T03:39:48;6.87;;;3.10;;
14776;SDS011;7480;43.124;25.686;2024-02-26T03:42:14;8.87;;;3.27;;
14776;SDS011;7480;43.124;25.686;2024-02-26T03:44:42;9.80;;;3.53;;
14776;SDS011;7480;43.124;25.686;2024-02-26T03:47:09;7.83;;;3.23;;
14776;SDS011;7480;43.124;25.686;2024-02-26T03:49:36;6.57;;;3.30;;
14776;SDS011;7480;43.124;25.686;2024-02-26T03:52:03;10.00;;;5.63;;
14776;SDS011;7480;43.124;25.686;2024-02-26T03:54:29;11.87;;;5.70;;
14776;SDS011;7480;43.124;25.686;2024-02-26T03:56:56;11.57;;;4.03;;
14776;SDS011;7480;43.124;25.686;2024-02-26T03:59:22;7.53;;;3.80;;
14776;SDS011;7480;43.124;25.686;2024-02-26T04:01:51;10.33;;;4.77;;
14776;SDS011;7480;43.124;25.686;2024-02-26T04:04:17;8.17;;;3.93;;
14776;SDS011;7480;43.124;25.686;2024-02-26T04:06:45;11.83;;;4.43;;
14776;SDS011;7480;43.124;25.686;2024-02-26T04:09:15;8.63;;;4.30;;
14776;SDS011;7480;43.124;25.686;2024-02-26T04:11:42;10.23;;;4.43;;
14776;SDS011;7480;43.124;25.686;2024-02-26T04:14:11;12.03;;;4.47;;
14776;SDS011;7480;43.124;25.686;2024-02-26T04:16:38;10.70;;;4.10;;
14776;SDS011;7480;43.124;25.686;2024-02-26T04:19:05;10.97;;;4.23;;
14776;SDS011;7480;43.124;25.686;2024-02-26T04:21:33;11.40;;;4.47;;
14776;SDS011;7480;43.124;25.686;2024-02-26T04:24:00;9.80;;;4.67;;
14776;SDS011;7480;43.124;25.686;2024-02-26T04:26:29;9.87;;;4.37;;
14776;SDS011;7480;43.124;25.686;2024-02-26T04:28:56;8.23;;;3.73;;
14776;SDS011;7480;43.124;25.686;2024-02-26T04:31:22;11.37;;;4.73;;
14776;SDS011;7480;43.124;25.686;2024-02-26T04:33:49;8.97;;;4.20;;
14776;SDS011;7480;43.124;25.686;2024-02-26T04:36:16;14.47;;;7.97;;
14776;SDS011;7480;43.124;25.686;2024-02-26T04:38:43;12.73;;;5.73;;
14776;SDS011;7480;43.124;25.686;2024-02-26T04:41:10;11.13;;;5.37;;
14776;SDS011;7480;43.124;25.686;2024-02-26T04:43:37;11.10;;;4.87;;
14776;SDS011;7480;43.124;25.686;2024-02-26T04:46:08;11.53;;;4.90;;
14776;SDS011;7480;43.124;25.686;2024-02-26T04:48:35;11.10;;;4.60;;
14776;SDS011;7480;43.124;25.686;2024-02-26T04:51:02;9.17;;;4.23;;
14776;SDS011;7480;43.124;25.686;2024-02-26T04:53:29;10.30;;;4.73;;
14776;SDS011;7480;43.124;25.686;2024-02-26T04:55:56;7.27;;;3.90;;
14776;SDS011;7480;43.124;25.686;2024-02-26T04:58:22;17.53;;;5.60;;
14776;SDS011;7480;43.124;25.686;2024-02-26T05:00:49;13.03;;;5.37;;
14776;SDS011;7480;43.124;25.686;2024-02-26T05:03:16;10.57;;;4.77;;
14776;SDS011;7480;43.124;25.686;2024-02-26T05:05:43;19.83;;;7.37;;
14776;SDS011;7480;43.124;25.686;2024-02-26T05:08:09;12.23;;;5.63;;
14776;SDS011;7480;43.124;25.686;2024-02-26T05:10:37;12.90;;;5.27;;
14776;SDS011;7480;43.124;25.686;2024-02-26T05:13:06;16.60;;;5.83;;
14776;SDS011;7480;43.124;25.686;2024-02-26T05:15:33;12.83;;;5.97;;
14776;SDS011;7480;43.124;25.686;2024-02-26T05:17:59;12.20;;;5.37;;
14776;SDS011;7480;43.124;25.686;2024-02-26T05:20:26;13.47;;;5.30;;
14776;SDS011;7480;43.124;25.686;2024-02-26T05:22:52;12.20;;;5.17;;
14776;SDS011;7480;43.124;25.686;2024-02-26T05:25:19;10.57;;;4.27;;
14776;SDS011;7480;43.124;25.686;2024-02-26T05:27:46;14.27;;;4.97;;
14776;SDS011;7480;43.124;25.686;2024-02-26T05:30:12;8.63;;;4.47;;
14776;SDS011;7480;43.124;25.686;2024-02-26T05:32:39;14.73;;;5.63;;
14776;SDS011;7480;43.124;25.686;2024-02-26T05:35:06;12.23;;;4.67;;
14776;SDS011;7480;43.124;25.686;2024-02-26T05:37:33;13.33;;;6.17;;
14776;SDS011;7480;43.124;25.686;2024-02-26T05:39:59;15.53;;;5.93;;
14776;SDS011;7480;43.124;25.686;2024-02-26T05:42:26;10.43;;;4.23;;
14776;SDS011;7480;43.124;25.686;2024-02-26T05:44:52;21.37;;;6.47;;
14776;SDS011;7480;43.124;25.686;2024-02-26T05:47:19;11.97;;;5.37;;
14776;SDS011;7480;43.124;25.686;2024-02-26T05:49:46;14.00;;;6.53;;
14776;SDS011;7480;43.124;25.686;2024-02-26T05:52:12;12.13;;;5.93;;
14776;SDS011;7480;43.124;25.686;2024-02-26T05:54:39;10.87;;;5.13;;
14776;SDS011;7480;43.124;25.686;2024-02-26T05:57:05;14.37;;;6.93;;
14776;SDS011;7480;43.124;25.686;2024-02-26T05:59:32;14.73;;;5.63;;
14776;SDS011;7480;43.124;25.686;2024-02-26T06:01:59;11.53;;;5.90;;
14776;SDS011;7480;43.124;25.686;2024-02-26T06:04:25;12.27;;;5.37;;
14776;SDS011;7480;43.124;25.686;2024-02-26T06:06:52;17.93;;;7.30;;
14776;SDS011;7480;43.124;25.686;2024-02-26T06:09:19;9.77;;;5.10;;
14776;SDS011;7480;43.124;25.686;2024-02-26T06:11:45;14.87;;;6.40;;
14776;SDS011;7480;43.124;25.686;2024-02-26T06:14:12;11.33;;;5.53;;
14776;SDS011;7480;43.124;25.686;2024-02-26T06:16:40;14.07;;;6.43;;
14776;SDS011;7480;43.124;25.686;2024-02-26T06:19:07;10.90;;;6.93;;
14776;SDS011;7480;43.124;25.686;2024-02-26T06:21:38;14.93;;;7.17;;
14776;SDS011;7480;43.124;25.686;2024-02-26T06:24:05;11.47;;;6.57;;
14776;SDS011;7480;43.124;25.686;2024-02-26T06:26:31;10.43;;;5.13;;
14776;SDS011;7480;43.124;25.686;2024-02-26T06:29:00;12.37;;;5.97;;
14776;SDS011;7480;43.124;25.686;2024-02-26T06:31:26;10.77;;;4.73;;
14776;SDS011;7480;43.124;25.686;2024-02-26T06:33:54;16.23;;;5.37;;
14776;SDS011;7480;43.124;25.686;2024-02-26T06:36:22;12.07;;;5.57;;
14776;SDS011;7480;43.124;25.686;2024-02-26T06:38:48;11.80;;;5.97;;
14776;SDS011;7480;43.124;25.686;2024-02-26T06:41:15;10.53;;;5.77;;
14776;SDS011;7480;43.124;25.686;2024-02-26T06:43:42;12.83;;;6.43;;
14776;SDS011;7480;43.124;25.686;2024-02-26T06:46:08;16.43;;;6.60;;
14776;SDS011;7480;43.124;25.686;2024-02-26T06:48:35;13.30;;;6.63;;
14776;SDS011;7480;43.124;25.686;2024-02-26T06:51:03;12.07;;;5.67;;
14776;SDS011;7480;43.124;25.686;2024-02-26T06:53:30;13.23;;;7.07;;
14776;SDS011;7480;43.124;25.686;2024-02-26T06:55:57;13.33;;;5.53;;
14776;SDS011;7480;43.124;25.686;2024-02-26T06:58:23;16.03;;;6.70;;
14776;SDS011;7480;43.124;25.686;2024-02-26T07:00:50;7.33;;;5.10;;
14776;SDS011;7480;43.124;25.686;2024-02-26T07:03:17;11.80;;;4.29;;
14776;SDS011;7480;43.124;25.686;2024-02-26T07:05:44;8.50;;;5.47;;
14776;SDS011;7480;43.124;25.686;2024-02-26T07:08:12;17.50;;;7.47;;
14776;SDS011;7480;43.124;25.686;2024-02-26T07:10:39;19.00;;;7.30;;
14776;SDS011;7480;43.124;25.686;2024-02-26T07:13:05;14.80;;;8.43;;
14776;SDS011;7480;43.124;25.686;2024-02-26T07:15:32;17.47;;;8.07;;
14776;SDS011;7480;43.124;25.686;2024-02-26T07:17:59;15.27;;;8.30;;
14776;SDS011;7480;43.124;25.686;2024-02-26T07:20:30;17.87;;;8.33;;
14776;SDS011;7480;43.124;25.686;2024-02-26T07:22:57;17.90;;;6.47;;
14776;SDS011;7480;43.124;25.686;2024-02-26T07:25:23;10.50;;;5.90;;
14776;SDS011;7480;43.124;25.686;2024-02-26T07:27:50;15.13;;;6.27;;
14776;SDS011;7480;43.124;25.686;2024-02-26T07:30:17;20.67;;;8.20;;
14776;SDS011;7480;43.124;25.686;2024-02-26T07:32:44;15.87;;;6.20;;
14776;SDS011;7480;43.124;25.686;2024-02-26T07:35:16;10.70;;;5.33;;
14776;SDS011;7480;43.124;25.686;2024-02-26T07:37:44;10.20;;;4.87;;
14776;SDS011;7480;43.124;25.686;2024-02-26T07:40:11;4.37;;;3.40;;
14776;SDS011;7480;43.124;25.686;2024-02-26T07:42:37;7.53;;;4.17;;
14776;SDS011;7480;43.124;25.686;2024-02-26T07:45:05;7.97;;;3.80;;
14776;SDS011;7480;43.124;25.686;2024-02-26T07:47:32;9.63;;;4.97;;
14776;SDS011;7480;43.124;25.686;2024-02-26T07:50:01;13.00;;;6.57;;
14776;SDS011;7480;43.124;25.686;2024-02-26T07:52:28;13.30;;;4.93;;
14776;SDS011;7480;43.124;25.686;2024-02-26T07:54:55;18.87;;;9.37;;
14776;SDS011;7480;43.124;25.686;2024-02-26T07:57:21;13.73;;;7.33;;
14776;SDS011;7480;43.124;25.686;2024-02-26T07:59:48;6.23;;;3.50;;
14776;SDS011;7480;43.124;25.686;2024-02-26T08:02:16;8.60;;;4.43;;
14776;SDS011;7480;43.124;25.686;2024-02-26T08:04:43;10.97;;;4.53;;
14776;SDS011;7480;43.124;25.686;2024-02-26T08:07:09;9.53;;;5.03;;
14776;SDS011;7480;43.124;25.686;2024-02-26T08:09:36;9.90;;;4.50;;
14776;SDS011;7480;43.124;25.686;2024-02-26T08:12:03;8.43;;;3.93;;
14776;SDS011;7480;43.124;25.686;2024-02-26T08:14:29;10.37;;;4.53;;
14776;SDS011;7480;43.124;25.686;2024-02-26T08:16:56;11.30;;;4.30;;
14776;SDS011;7480;43.124;25.686;2024-02-26T08:19:22;8.00;;;3.83;;
14776;SDS011;7480;43.124;25.686;2024-02-26T08:21:49;9.77;;;4.47;;
14776;SDS011;7480;43.124;25.686;2024-02-26T08:24:16;10.77;;;4.67;;
14776;SDS011;7480;43.124;25.686;2024-02-26T08:26:43;9.13;;;4.33;;
14776;SDS011;7480;43.124;25.686;2024-02-26T08:29:10;5.67;;;2.80;;
14776;SDS011;7480;43.124;25.686;2024-02-26T08:31:36;11.70;;;4.47;;
14776;SDS011;7480;43.124;25.686;2024-02-26T08:34:04;9.37;;;3.60;;
14776;SDS011;7480;43.124;25.686;2024-02-26T08:36:32;7.33;;;4.17;;
14776;SDS011;7480;43.124;25.686;2024-02-26T08:38:59;9.83;;;4.00;;
14776;SDS011;7480;43.124;25.686;2024-02-26T08:41:26;7.20;;;3.63;;
14776;SDS011;7480;43.124;25.686;2024-02-26T08:43:53;9.73;;;3.60;;
14776;SDS011;7480;43.124;25.686;2024-02-26T08:46:19;6.80;;;3.10;;
14776;SDS011;7480;43.124;25.686;2024-02-26T08:48:46;8.37;;;3.67;;
14776;SDS011;7480;43.124;25.686;2024-02-26T08:51:13;9.00;;;3.43;;
14776;SDS011;7480;43.124;25.686;2024-02-26T08:53:39;8.87;;;3.70;;
14776;SDS011;7480;43.124;25.686;2024-02-26T08:56:09;8.40;;;3.87;;
14776;SDS011;7480;43.124;25.686;2024-02-26T08:58:38;10.57;;;4.37;;
14776;SDS011;7480;43.124;25.686;2024-02-26T09:01:04;6.13;;;4.07;;
14776;SDS011;7480;43.124;25.686;2024-02-26T09:03:31;8.43;;;3.27;;
14776;SDS011;7480;43.124;25.686;2024-02-26T09:05:57;7.67;;;3.43;;
14776;SDS011;7480;43.124;25.686;2024-02-26T09:08:24;6.23;;;3.73;;
14776;SDS011;7480;43.124;25.686;2024-02-26T09:10:51;3.80;;;2.80;;
14776;SDS011;7480;43.124;25.686;2024-02-26T09:13:17;6.90;;;3.90;;
14776;SDS011;7480;43.124;25.686;2024-02-26T09:15:45;9.83;;;3.97;;
14776;SDS011;7480;43.124;25.686;2024-02-26T09:18:12;7.37;;;3.60;;
14776;SDS011;7480;43.124;25.686;2024-02-26T09:20:39;6.73;;;2.93;;
14776;SDS011;7480;43.124;25.686;2024-02-26T09:23:06;4.87;;;2.70;;
14776;SDS011;7480;43.124;25.686;2024-02-26T09:25:33;6.90;;;2.87;;
14776;SDS011;7480;43.124;25.686;2024-02-26T09:28:02;4.33;;;2.70;;
14776;SDS011;7480;43.124;25.686;2024-02-26T09:30:29;5.67;;;2.47;;
14776;SDS011;7480;43.124;25.686;2024-02-26T09:32:56;5.97;;;3.20;;
14776;SDS011;7480;43.124;25.686;2024-02-26T09:35:23;9.30;;;3.50;;
14776;SDS011;7480;43.124;25.686;2024-02-26T09:37:50;8.00;;;3.67;;
14776;SDS011;7480;43.124;25.686;2024-02-26T09:40:17;8.63;;;3.93;;
14776;SDS011;7480;43.124;25.686;2024-02-26T09:42:44;9.33;;;4.50;;
14776;SDS011;7480;43.124;25.686;2024-02-26T09:45:13;6.67;;;4.10;;
14776;SDS011;7480;43.124;25.686;2024-02-26T09:47:43;10.27;;;4.37;;
14776;SDS011;7480;43.124;25.686;2024-02-26T09:50:10;4.43;;;2.90;;
14776;SDS011;7480;43.124;25.686;2024-02-26T09:52:39;8.80;;;3.70;;
14776;SDS011;7480;43.124;25.686;2024-02-26T09:55:07;4.43;;;3.30;;
14776;SDS011;7480;43.124;25.686;2024-02-26T09:57:36;6.10;;;3.40;;
14776;SDS011;7480;43.124;25.686;2024-02-26T10:00:03;6.17;;;2.93;;
14776;SDS011;7480;43.124;25.686;2024-02-26T10:02:31;4.50;;;2.43;;
14776;SDS011;7480;43.124;25.686;2024-02-26T10:04:59;7.87;;;3.70;;
14776;SDS011;7480;43.124;25.686;2024-02-26T10:07:27;6.03;;;3.30;;
14776;SDS011;7480;43.124;25.686;2024-02-26T10:09:56;6.63;;;3.20;;
14776;SDS011;7480;43.124;25.686;2024-02-26T10:12:22;7.03;;;3.37;;
14776;SDS011;7480;43.124;25.686;2024-02-26T10:14:49;6.90;;;3.53;;
14776;SDS011;7480;43.124;25.686;2024-02-26T10:17:16;5.80;;;3.40;;
14776;SDS011;7480;43.124;25.686;2024-02-26T10:19:43;6.43;;;3.40;;
14776;SDS011;7480;43.124;25.686;2024-02-26T10:22:09;6.27;;;3.13;;
14776;SDS011;7480;43.124;25.686;2024-02-26T10:24:36;5.47;;;2.77;;
14776;SDS011;7480;43.124;25.686;2024-02-26T10:27:03;5.37;;;2.40;;
14776;SDS011;7480;43.124;25.686;2024-02-26T10:29:30;10.70;;;3.90;;
14776;SDS011;7480;43.124;25.686;2024-02-26T10:31:57;9.67;;;3.67;;
14776;SDS011;7480;43.124;25.686;2024-02-26T10:34:24;10.53;;;3.17;;
14776;SDS011;7480;43.124;25.686;2024-02-26T10:36:51;8.70;;;3.03;;
14776;SDS011;7480;43.124;25.686;2024-02-26T10:39:20;9.23;;;2.73;;
14776;SDS011;7480;43.124;25.686;2024-02-26T10:41:48;7.80;;;3.28;;
14776;SDS011;7480;43.124;25.686;2024-02-26T10:44:14;4.95;;;2.55;;
14776;SDS011;7480;43.124;25.686;2024-02-26T10:46:45;8.10;;;3.28;;
14776;SDS011;7480;43.124;25.686;2024-02-26T10:49:15;4.10;;;2.25;;
14776;SDS011;7480;43.124;25.686;2024-02-26T10:51:45;5.80;;;2.28;;
14776;SDS011;7480;43.124;25.686;2024-02-26T10:54:16;7.53;;;2.55;;
14776;SDS011;7480;43.124;25.686;2024-02-26T10:56:43;9.15;;;3.17;;
14776;SDS011;7480;43.124;25.686;2024-02-26T10:59:10;3.58;;;2.00;;
14776;SDS011;7480;43.124;25.686;2024-02-26T11:01:39;7.80;;;2.70;;
14776;SDS011;7480;43.124;25.686;2024-02-26T11:04:08;4.70;;;1.85;;
14776;SDS011;7480;43.124;25.686;2024-02-26T11:06:35;11.07;;;3.07;;
14776;SDS011;7480;43.124;25.686;2024-02-26T11:09:02;4.75;;;2.13;;
14776;SDS011;7480;43.124;25.686;2024-02-26T11:11:30;3.47;;;1.92;;
14776;SDS011;7480;43.124;25.686;2024-02-26T11:13:58;3.13;;;1.70;;
14776;SDS011;7480;43.124;25.686;2024-02-26T11:16:25;4.37;;;1.97;;
14776;SDS011;7480;43.124;25.686;2024-02-26T11:18:52;8.73;;;2.80;;
14776;SDS011;7480;43.124;25.686;2024-02-26T11:21:21;5.90;;;1.70;;
14776;SDS011;7480;43.124;25.686;2024-02-26T11:24:08;8.95;;;2.83;;
14776;SDS011;7480;43.124;25.686;2024-02-26T11:26:36;7.18;;;2.08;;
14776;SDS011;7480;43.124;25.686;2024-02-26T11:29:05;7.43;;;2.47;;
14776;SDS011;7480;43.124;25.686;2024-02-26T11:31:32;4.78;;;2.30;;
14776;SDS011;7480;43.124;25.686;2024-02-26T11:34:02;5.25;;;2.20;;
14776;SDS011;7480;43.124;25.686;2024-02-26T11:36:29;5.78;;;2.08;;
14776;SDS011;7480;43.124;25.686;2024-02-26T11:38:56;6.88;;;2.40;;
14776;SDS011;7480;43.124;25.686;2024-02-26T11:41:23;12.02;;;3.53;;
14776;SDS011;7480;43.124;25.686;2024-02-26T11:43:53;9.68;;;3.13;;
14776;SDS011;7480;43.124;25.686;2024-02-26T11:46:30;6.95;;;2.63;;
14776;SDS011;7480;43.124;25.686;2024-02-26T11:49:02;14.18;;;3.97;;
14776;SDS011;7480;43.124;25.686;2024-02-26T11:51:32;8.00;;;2.20;;
14776;SDS011;7480;43.124;25.686;2024-02-26T11:53:59;4.45;;;1.92;;
14776;SDS011;7480;43.124;25.686;2024-02-26T11:56:26;9.30;;;3.10;;
14776;SDS011;7480;43.124;25.686;2024-02-26T11:58:57;3.67;;;1.67;;
14776;SDS011;7480;43.124;25.686;2024-02-26T12:04:07;9.65;;;2.90;;
14776;SDS011;7480;43.124;25.686;2024-02-26T12:09:37;5.50;;;2.10;;
14776;SDS011;7480;43.124;25.686;2024-02-26T12:12:08;8.95;;;2.85;;
14776;SDS011;7480;43.124;25.686;2024-02-26T12:14:53;4.10;;;1.85;;
14776;SDS011;7480;43.124;25.686;2024-02-26T12:17:23;4.97;;;2.15;;
14776;SDS011;7480;43.124;25.686;2024-02-26T12:19:50;11.10;;;3.10;;
14776;SDS011;7480;43.124;25.686;2024-02-26T12:22:18;4.00;;;1.52;;
14776;SDS011;7480;43.124;25.686;2024-02-26T12:24:45;8.48;;;2.92;;
14776;SDS011;7480;43.124;25.686;2024-02-26T12:27:11;8.17;;;2.67;;
14776;SDS011;7480;43.124;25.686;2024-02-26T12:29:39;7.20;;;2.40;;
14776;SDS011;7480;43.124;25.686;2024-02-26T12:32:05;7.00;;;2.23;;
14776;SDS011;7480;43.124;25.686;2024-02-26T12:34:33;6.85;;;2.10;;
14776;SDS011;7480;43.124;25.686;2024-02-26T12:37:00;6.57;;;2.40;;
14776;SDS011;7480;43.124;25.686;2024-02-26T12:39:27;6.03;;;2.13;;
14776;SDS011;7480;43.124;25.686;2024-02-26T12:41:53;9.68;;;2.58;;
14776;SDS011;7480;43.124;25.686;2024-02-26T12:44:24;5.00;;;2.33;;
14776;SDS011;7480;43.124;25.686;2024-02-26T12:46:51;4.70;;;2.00;;
14776;SDS011;7480;43.124;25.686;2024-02-26T12:49:25;6.15;;;2.33;;
14776;SDS011;7480;43.124;25.686;2024-02-26T12:51:52;4.45;;;1.85;;
14776;SDS011;7480;43.124;25.686;2024-02-26T12:54:19;3.42;;;1.90;;
14776;SDS011;7480;43.124;25.686;2024-02-26T12:56:46;6.80;;;2.38;;
14776;SDS011;7480;43.124;25.686;2024-02-26T12:59:12;6.35;;;2.67;;
14776;SDS011;7480;43.124;25.686;2024-02-26T13:01:40;10.75;;;2.63;;
14776;SDS011;7480;43.124;25.686;2024-02-26T13:04:07;5.40;;;2.13;;
14776;SDS011;7480;43.124;25.686;2024-02-26T13:06:34;2.43;;;1.73;;
14776;SDS011;7480;43.124;25.686;2024-02-26T13:09:01;3.83;;;1.83;;
14776;SDS011;7480;43.124;25.686;2024-02-26T13:11:29;7.05;;;2.50;;
14776;SDS011;7480;43.124;25.686;2024-02-26T13:13:57;10.03;;;3.30;;
14776;SDS011;7480;43.124;25.686;2024-02-26T13:16:24;7.83;;;2.50;;
14776;SDS011;7480;43.124;25.686;2024-02-26T13:18:51;5.17;;;2.00;;
14776;SDS011;7480;43.124;25.686;2024-02-26T13:21:18;13.67;;;3.80;;
14776;SDS011;7480;43.124;25.686;2024-02-26T13:23:48;9.60;;;2.83;;
14776;SDS011;7480;43.124;25.686;2024-02-26T13:26:15;8.53;;;2.63;;
14776;SDS011;7480;43.124;25.686;2024-02-26T13:28:41;4.67;;;2.23;;
14776;SDS011;7480;43.124;25.686;2024-02-26T13:31:08;6.90;;;2.67;;
14776;SDS011;7480;43.124;25.686;2024-02-26T13:33:34;6.63;;;2.43;;
14776;SDS011;7480;43.124;25.686;2024-02-26T13:36:02;4.17;;;2.20;;
14776;SDS011;7480;43.124;25.686;2024-02-26T13:38:29;7.25;;;2.30;;
14776;SDS011;7480;43.124;25.686;2024-02-26T13:40:55;3.27;;;2.00;;
14776;SDS011;7480;43.124;25.686;2024-02-26T13:43:22;4.63;;;2.20;;
14776;SDS011;7480;43.124;25.686;2024-02-26T13:45:49;6.40;;;2.37;;
14776;SDS011;7480;43.124;25.686;2024-02-26T13:48:16;5.43;;;2.13;;
14776;SDS011;7480;43.124;25.686;2024-02-26T13:50:43;6.43;;;2.57;;
14776;SDS011;7480;43.124;25.686;2024-02-26T13:53:11;5.75;;;2.60;;
14776;SDS011;7480;43.124;25.686;2024-02-26T13:55:38;5.45;;;2.50;;
14776;SDS011;7480;43.124;25.686;2024-02-26T13:58:06;3.75;;;1.90;;
14776;SDS011;7480;43.124;25.686;2024-02-26T14:00:33;4.30;;;2.23;;
14776;SDS011;7480;43.124;25.686;2024-02-26T14:03:01;9.73;;;2.53;;
14776;SDS011;7480;43.124;25.686;2024-02-26T14:05:29;7.67;;;2.33;;
14776;SDS011;7480;43.124;25.686;2024-02-26T14:07:56;7.50;;;2.50;;
14776;SDS011;7480;43.124;25.686;2024-02-26T14:10:23;5.00;;;2.20;;
14776;SDS011;7480;43.124;25.686;2024-02-26T14:12:50;5.20;;;2.37;;
14776;SDS011;7480;43.124;25.686;2024-02-26T14:15:17;5.93;;;2.57;;
14776;SDS011;7480;43.124;25.686;2024-02-26T14:17:43;8.87;;;3.17;;
14776;SDS011;7480;43.124;25.686;2024-02-26T14:20:10;4.10;;;2.33;;
14776;SDS011;7480;43.124;25.686;2024-02-26T14:22:37;7.30;;;2.43;;
14776;SDS011;7480;43.124;25.686;2024-02-26T14:25:04;7.97;;;3.47;;
14776;SDS011;7480;43.124;25.686;2024-02-26T14:27:30;9.37;;;3.77;;
14776;SDS011;7480;43.124;25.686;2024-02-26T14:29:57;6.77;;;3.50;;
14776;SDS011;7480;43.124;25.686;2024-02-26T14:32:24;3.90;;;2.47;;
14776;SDS011;7480;43.124;25.686;2024-02-26T14:34:50;10.03;;;2.83;;
14776;SDS011;7480;43.124;25.686;2024-02-26T14:37:17;9.20;;;3.10;;
14776;SDS011;7480;43.124;25.686;2024-02-26T14:39:44;8.53;;;3.17;;
14776;SDS011;7480;43.124;25.686;2024-02-26T14:42:11;7.37;;;3.00;;
14776;SDS011;7480;43.124;25.686;2024-02-26T14:44:37;4.70;;;2.63;;
14776;SDS011;7480;43.124;25.686;2024-02-26T14:47:04;7.53;;;3.17;;
14776;SDS011;7480;43.124;25.686;2024-02-26T14:49:30;8.53;;;3.43;;